createdAt,value
2023-03-16T00:00:05.408Z,77.03
2023-03-16T00:01:04.857Z,77.13
2023-03-16T00:02:05.039Z,77.03
2023-03-16T00:03:05.088Z,77.44
2023-03-16T00:04:04.808Z,78.69
2023-03-16T00:05:04.930Z,77.75
2023-03-16T00:06:05.381Z,77.23
2023-03-16T00:07:04.921Z,77.34
2023-03-16T00:08:04.705Z,77.86
2023-03-16T00:09:04.703Z,77.44
2023-03-16T00:10:04.911Z,77.23
2023-03-16T00:11:04.784Z,78.48
2023-03-16T00:12:04.843Z,77.89
2023-03-16T00:13:04.659Z,78.48
2023-03-16T00:14:04.991Z,77.89
2023-03-16T00:15:04.829Z,77.96
2023-03-16T00:16:04.947Z,79.00
2023-03-16T00:17:04.788Z,79.10
2023-03-16T00:18:05.210Z,78.06
2023-03-16T00:19:04.628Z,77.96
2023-03-16T00:20:04.625Z,77.44
2023-03-16T00:21:04.659Z,77.13
2023-03-16T00:22:04.644Z,77.44
2023-03-16T00:23:04.558Z,77.23
2023-03-16T00:24:04.721Z,77.13
2023-03-16T00:25:04.866Z,77.20
2023-03-16T00:26:04.725Z,76.99
2023-03-16T00:27:04.556Z,75.85
2023-03-16T00:28:04.676Z,76.06
2023-03-16T00:29:05.643Z,76.12
2023-03-16T00:30:04.541Z,76.26
2023-03-16T00:31:04.499Z,76.99
2023-03-16T00:32:04.644Z,77.40
2023-03-16T00:33:04.695Z,77.20
2023-03-16T00:34:04.477Z,77.44
2023-03-16T00:35:04.403Z,77.65
2023-03-16T00:36:04.560Z,77.96
2023-03-16T00:37:04.419Z,78.58
2023-03-16T00:38:04.719Z,78.06
2023-03-16T00:39:04.533Z,77.55
2023-03-16T00:40:04.409Z,78.27
2023-03-16T00:41:04.415Z,78.17
2023-03-16T00:42:04.382Z,77.86
2023-03-16T00:43:04.366Z,78.17
2023-03-16T00:44:04.464Z,76.99
2023-03-16T00:45:04.350Z,76.57
2023-03-16T00:46:04.385Z,76.99
2023-03-16T00:47:04.315Z,77.40
2023-03-16T00:48:04.340Z,77.20
2023-03-16T00:49:04.478Z,77.09
2023-03-16T00:50:04.417Z,76.78
2023-03-16T00:51:04.512Z,77.72
2023-03-16T00:52:04.487Z,76.89
2023-03-16T00:53:04.543Z,76.33
2023-03-16T00:54:04.570Z,76.64
2023-03-16T00:55:04.316Z,76.64
2023-03-16T00:56:04.528Z,76.54
2023-03-16T00:57:04.286Z,76.78
2023-03-16T00:58:04.445Z,76.99
2023-03-16T00:59:04.501Z,76.99
2023-03-16T01:00:04.209Z,78.34
2023-03-16T01:01:04.415Z,77.72
2023-03-16T01:02:04.257Z,77.72
2023-03-16T01:03:04.315Z,78.44
2023-03-16T01:04:04.238Z,78.03
2023-03-16T01:05:04.137Z,77.40
2023-03-16T01:06:04.146Z,77.30
2023-03-16T01:07:04.227Z,77.61
2023-03-16T01:08:04.139Z,77.92
2023-03-16T01:09:04.179Z,77.40
2023-03-16T01:10:04.203Z,76.95
2023-03-16T01:11:04.271Z,76.54
2023-03-16T01:12:04.526Z,76.47
2023-03-16T01:13:04.106Z,76.99
2023-03-16T01:14:04.097Z,76.68
2023-03-16T01:15:04.981Z,76.12
2023-03-16T01:16:04.079Z,76.02
2023-03-16T01:17:04.416Z,75.71
2023-03-16T01:18:04.277Z,76.23
2023-03-16T01:19:04.192Z,75.40
2023-03-16T01:20:04.174Z,75.40
2023-03-16T01:21:04.695Z,75.71
2023-03-16T01:22:04.438Z,76.43
2023-03-16T01:23:03.997Z,75.71
2023-03-16T01:24:03.968Z,75.50
2023-03-16T01:25:03.945Z,76.23
2023-03-16T01:26:03.962Z,75.40
2023-03-16T01:27:03.957Z,74.67
2023-03-16T01:28:04.284Z,75.05
2023-03-16T01:29:03.938Z,75.88
2023-03-16T01:30:03.934Z,74.74
2023-03-16T01:31:04.141Z,75.15
2023-03-16T01:32:03.912Z,75.36
2023-03-16T01:33:03.976Z,75.15
2023-03-16T01:34:03.966Z,75.71
2023-03-16T01:35:03.918Z,75.19
2023-03-16T01:36:03.967Z,74.67
2023-03-16T01:37:04.034Z,73.91
2023-03-16T01:38:03.949Z,74.43
2023-03-16T01:39:03.912Z,74.53
2023-03-16T01:40:04.030Z,74.32
2023-03-16T01:41:03.855Z,74.32
2023-03-16T01:42:03.778Z,74.74
2023-03-16T01:43:03.913Z,74.53
2023-03-16T01:44:03.868Z,74.22
2023-03-16T01:45:04.010Z,74.57
2023-03-16T01:46:03.854Z,74.57
2023-03-16T01:47:03.925Z,74.67
2023-03-16T01:48:03.907Z,74.88
2023-03-16T01:49:03.949Z,74.88
2023-03-16T01:50:03.747Z,74.57
2023-03-16T01:51:06.202Z,74.57
2023-03-16T01:52:03.912Z,74.46
2023-03-16T01:53:03.866Z,75.09
2023-03-16T01:54:03.724Z,74.88
2023-03-16T01:55:04.019Z,75.19
2023-03-16T01:56:03.668Z,74.05
2023-03-16T01:57:04.022Z,73.91
2023-03-16T01:58:03.674Z,73.91
2023-03-16T01:59:03.676Z,73.18
2023-03-16T02:00:03.713Z,73.80
2023-03-16T02:01:03.700Z,72.97
2023-03-16T02:02:03.660Z,74.53
2023-03-16T02:03:03.620Z,74.11
2023-03-16T02:04:03.762Z,73.91
2023-03-16T02:05:03.778Z,73.60
2023-03-16T02:06:03.556Z,74.32
2023-03-16T02:07:03.598Z,74.01
2023-03-16T02:08:03.616Z,74.11
2023-03-16T02:09:03.535Z,74.11
2023-03-16T02:10:04.028Z,74.22
2023-03-16T02:11:03.516Z,74.01
2023-03-16T02:12:03.500Z,74.01
2023-03-16T02:13:03.579Z,74.43
2023-03-16T02:14:03.473Z,74.53
2023-03-16T02:15:03.635Z,73.91
2023-03-16T02:16:03.673Z,73.70
2023-03-16T02:17:03.592Z,73.49
2023-03-16T02:18:03.465Z,73.57
2023-03-16T02:19:03.674Z,73.60
2023-03-16T02:20:03.546Z,73.80
2023-03-16T02:21:03.463Z,74.11
2023-03-16T02:22:03.462Z,74.84
2023-03-16T02:23:03.649Z,74.95
2023-03-16T02:24:03.429Z,75.67
2023-03-16T02:25:03.446Z,75.05
2023-03-16T02:26:03.581Z,75.36
2023-03-16T02:27:03.698Z,74.84
2023-03-16T02:28:03.713Z,74.11
2023-03-16T02:29:03.327Z,74.53
2023-03-16T02:30:03.564Z,74.53
2023-03-16T02:31:03.506Z,74.63
2023-03-16T02:32:03.319Z,74.63
2023-03-16T02:33:03.398Z,75.57
2023-03-16T02:34:03.330Z,75.05
2023-03-16T02:35:03.283Z,74.74
2023-03-16T02:36:03.430Z,75.05
2023-03-16T02:37:03.466Z,75.26
2023-03-16T02:38:03.303Z,75.15
2023-03-16T02:39:03.625Z,74.63
2023-03-16T02:40:03.278Z,74.74
2023-03-16T02:41:03.209Z,74.95
2023-03-16T02:42:03.929Z,74.19
2023-03-16T02:43:03.187Z,74.50
2023-03-16T02:44:03.258Z,74.53
2023-03-16T02:45:03.394Z,75.57
2023-03-16T02:46:03.324Z,75.67
2023-03-16T02:47:03.212Z,75.46
2023-03-16T02:48:03.157Z,74.63
2023-03-16T02:49:03.296Z,75.05
2023-03-16T02:50:03.155Z,75.46
2023-03-16T02:51:03.272Z,75.67
2023-03-16T02:52:03.270Z,75.15
2023-03-16T02:53:03.207Z,75.67
2023-03-16T02:54:03.346Z,73.88
2023-03-16T02:55:03.605Z,74.71
2023-03-16T02:56:03.340Z,74.40
2023-03-16T02:57:03.099Z,74.71
2023-03-16T02:58:03.199Z,75.85
2023-03-16T02:59:03.054Z,75.54
2023-03-16T03:00:03.048Z,74.50
2023-03-16T03:01:03.052Z,74.50
2023-03-16T03:02:03.017Z,74.71
2023-03-16T03:03:03.096Z,75.02
2023-03-16T03:04:03.033Z,74.60
2023-03-16T03:05:03.731Z,75.12
2023-03-16T03:06:03.080Z,75.12
2023-03-16T03:07:02.983Z,76.37
2023-03-16T03:08:03.046Z,75.23
2023-03-16T03:09:03.125Z,75.26
2023-03-16T03:10:03.223Z,74.95
2023-03-16T03:11:03.060Z,75.26
2023-03-16T03:12:02.950Z,74.50
2023-03-16T03:13:03.087Z,75.74
2023-03-16T03:14:03.014Z,75.64
2023-03-16T03:15:02.898Z,75.43
2023-03-16T03:16:03.004Z,74.60
2023-03-16T03:17:02.888Z,74.40
2023-03-16T03:18:02.964Z,74.40
2023-03-16T03:19:02.888Z,75.54
2023-03-16T03:20:02.933Z,74.91
2023-03-16T03:21:03.009Z,74.29
2023-03-16T03:22:02.901Z,74.50
2023-03-16T03:23:02.850Z,74.91
2023-03-16T03:24:02.944Z,74.29
2023-03-16T03:25:02.808Z,74.50
2023-03-16T03:26:02.965Z,74.26
2023-03-16T03:27:02.853Z,74.57
2023-03-16T03:28:02.954Z,74.05
2023-03-16T03:29:03.107Z,73.94
2023-03-16T03:30:02.869Z,73.43
2023-03-16T03:31:02.894Z,73.43
2023-03-16T03:32:02.837Z,73.63
2023-03-16T03:33:02.900Z,74.36
2023-03-16T03:34:03.783Z,73.84
2023-03-16T03:35:03.213Z,73.53
2023-03-16T03:36:02.796Z,74.46
2023-03-16T03:37:02.912Z,74.46
2023-03-16T03:38:02.727Z,75.09
2023-03-16T03:39:02.713Z,74.46
2023-03-16T03:40:02.694Z,74.57
2023-03-16T03:41:02.869Z,74.67
2023-03-16T03:42:02.644Z,75.19
2023-03-16T03:43:02.955Z,74.67
2023-03-16T03:44:02.738Z,74.67
2023-03-16T03:45:02.583Z,73.94
2023-03-16T03:46:02.773Z,74.77
2023-03-16T08:49:44.174Z,68.79
2023-03-16T08:50:45.182Z,67.86
2023-03-16T08:51:45.688Z,68.69
2023-03-16T08:52:45.118Z,68.59
2023-03-16T08:53:45.620Z,70.65
2023-03-16T08:55:01.501Z,67.97
2023-03-16T08:55:45.182Z,69.31
2023-03-16T08:56:45.280Z,69.00
2023-03-16T08:57:45.374Z,69.72
2023-03-16T08:58:45.302Z,69.31
2023-03-16T08:59:45.075Z,69.00
2023-03-16T09:00:47.083Z,67.97
2023-03-16T09:01:45.071Z,68.69
2023-03-16T09:02:45.058Z,68.27
2023-03-16T09:03:45.142Z,68.69
2023-03-16T09:04:45.181Z,68.59
2023-03-16T09:05:45.022Z,68.69
2023-03-16T09:06:45.642Z,69.69
2023-03-16T09:07:46.571Z,69.48
2023-03-16T09:08:44.941Z,68.04
2023-03-16T09:09:44.988Z,69.07
2023-03-16T09:10:44.954Z,69.27
2023-03-16T09:11:44.958Z,68.35
2023-03-16T09:12:44.942Z,68.86
2023-03-16T09:13:44.930Z,68.86
2023-03-16T09:14:44.914Z,68.45
2023-03-16T09:15:44.928Z,68.52
2023-03-16T09:16:45.016Z,68.93
2023-03-16T09:17:45.296Z,68.21
2023-03-16T09:18:44.889Z,69.45
2023-03-16T09:19:51.438Z,67.18
2023-03-16T09:20:44.862Z,68.01
2023-03-16T09:21:47.053Z,67.66
2023-03-16T09:22:44.822Z,67.74
2023-03-16T09:23:44.808Z,66.58
2023-03-16T09:24:44.790Z,65.92
2023-03-16T09:25:44.762Z,65.89
2023-03-16T09:26:44.791Z,64.84
2023-03-16T09:27:44.967Z,63.81
2023-03-16T09:28:44.746Z,64.81
2023-03-16T09:29:44.844Z,63.96
2023-03-16T09:30:44.972Z,63.65
2023-03-16T09:31:44.979Z,64.47
2023-03-16T09:32:44.967Z,64.06
2023-03-16T09:33:44.936Z,64.64
2023-03-16T09:34:44.811Z,63.90
2023-03-16T09:35:44.914Z,63.07
2023-03-16T09:36:44.846Z,64.07
2023-03-16T09:37:45.397Z,62.98
2023-03-16T09:38:44.921Z,62.05
2023-03-16T09:39:44.670Z,63.54
2023-03-16T09:40:47.051Z,64.37
2023-03-16T09:41:44.651Z,64.57
2023-03-16T09:42:44.601Z,64.37
2023-03-16T09:43:44.632Z,65.29
2023-03-16T09:44:44.568Z,66.63
2023-03-16T09:45:44.606Z,67.41
2023-03-16T09:46:44.881Z,64.85
2023-03-16T09:47:44.700Z,66.05
2023-03-16T09:48:44.534Z,64.31
2023-03-16T09:49:44.622Z,64.31
2023-03-16T09:50:48.760Z,64.17
2023-03-16T09:51:45.126Z,64.25
2023-03-16T09:52:44.994Z,65.24
2023-03-16T09:53:45.977Z,62.27
2023-03-16T09:54:44.612Z,62.61
2023-03-16T09:55:44.490Z,63.46
2023-03-16T09:56:44.505Z,64.79
2023-03-16T09:57:44.565Z,62.56
2023-03-16T09:58:44.512Z,63.82
2023-03-16T09:59:44.612Z,63.82
2023-03-16T10:00:44.448Z,64.13
2023-03-16T10:01:44.446Z,65.60
2023-03-16T10:02:44.535Z,65.44
2023-03-16T10:03:44.490Z,66.12
2023-03-16T10:04:45.121Z,64.35
2023-03-16T10:05:44.838Z,63.70
2023-03-16T10:06:44.415Z,62.78
2023-03-16T10:07:44.402Z,64.83
2023-03-16T10:08:44.345Z,61.66
2023-03-16T10:09:44.391Z,62.88
2023-03-16T10:10:44.366Z,62.88
2023-03-16T10:11:44.345Z,61.58
2023-03-16T10:12:44.413Z,62.61
2023-03-16T10:13:44.289Z,62.63
2023-03-16T10:14:44.290Z,62.98
2023-03-16T10:15:44.332Z,62.18
2023-03-16T10:16:44.335Z,64.03
2023-03-16T10:17:44.247Z,65.84
2023-03-16T10:18:44.298Z,63.39
2023-03-16T10:19:44.249Z,65.33
2023-03-16T10:20:44.294Z,65.44
2023-03-16T10:21:44.288Z,64.10
2023-03-16T10:22:44.215Z,63.28
2023-03-16T10:23:44.212Z,63.35
2023-03-16T10:24:44.209Z,64.28
2023-03-16T10:25:44.418Z,63.18
2023-03-16T10:26:44.385Z,63.28
2023-03-16T10:27:44.342Z,63.90
2023-03-16T10:28:44.249Z,63.49
2023-03-16T10:29:44.239Z,64.61
2023-03-16T10:30:44.206Z,63.59
2023-03-16T10:31:44.411Z,63.72
2023-03-16T10:32:44.193Z,64.23
2023-03-16T10:33:44.369Z,64.44
2023-03-16T10:34:44.217Z,65.19
2023-03-16T10:35:44.279Z,66.31
2023-03-16T10:36:44.385Z,65.50
2023-03-16T10:37:44.068Z,65.80
2023-03-16T10:38:44.074Z,66.52
2023-03-16T10:39:44.172Z,65.29
2023-03-16T10:40:44.149Z,65.09
2023-03-16T10:41:44.080Z,64.47
2023-03-16T10:42:44.048Z,64.06
2023-03-16T10:43:43.986Z,64.67
2023-03-16T10:44:44.013Z,64.67
2023-03-16T10:45:44.131Z,64.78
2023-03-16T10:46:44.317Z,64.78
2023-03-16T10:47:44.180Z,63.85
2023-03-16T10:48:43.954Z,64.47
2023-03-16T10:49:44.147Z,64.95
2023-03-16T10:50:44.319Z,65.36
2023-03-16T10:51:44.066Z,64.41
2023-03-16T10:52:44.228Z,64.41
2023-03-16T10:53:43.949Z,64.28
2023-03-16T10:54:43.913Z,63.64
2023-03-16T10:55:43.907Z,62.99
2023-03-16T10:56:43.875Z,62.24
2023-03-16T10:57:44.429Z,62.73
2023-03-16T10:58:43.967Z,61.77
2023-03-16T10:59:44.016Z,61.47
2023-03-16T11:00:44.362Z,58.48
2023-03-16T11:01:44.061Z,60.19
2023-03-16T11:02:44.083Z,59.88
2023-03-16T11:03:44.275Z,59.57
2023-03-16T11:04:43.913Z,58.58
2023-03-16T11:05:43.795Z,58.58
2023-03-16T11:06:43.928Z,59.80
2023-03-16T11:07:43.959Z,59.30
2023-03-16T11:08:44.065Z,59.60
2023-03-16T11:09:43.974Z,59.70
2023-03-16T11:10:55.165Z,58.98
2023-03-16T11:11:43.815Z,58.58
2023-03-16T11:12:44.048Z,60.72
2023-03-16T11:13:43.896Z,57.45
2023-03-16T11:14:43.708Z,58.07
2023-03-16T11:15:43.877Z,58.25
2023-03-16T11:16:43.735Z,58.25
2023-03-16T11:17:43.665Z,57.20
2023-03-16T11:18:43.888Z,58.37
2023-03-16T11:19:43.780Z,56.48
2023-03-16T11:20:43.685Z,55.43
2023-03-16T11:21:43.823Z,55.10
2023-03-16T11:22:43.969Z,54.13
2023-03-16T11:23:43.811Z,53.17
2023-03-16T11:24:43.583Z,51.84
2023-03-16T11:25:43.629Z,50.81
2023-03-16T11:26:43.937Z,50.27
2023-03-16T11:27:43.641Z,50.96
2023-03-16T11:28:43.552Z,49.66
2023-03-16T11:29:43.822Z,50.20
2023-03-16T11:30:43.569Z,50.18
2023-03-16T11:31:43.684Z,48.94
2023-03-16T11:32:43.690Z,46.67
2023-03-16T11:33:43.524Z,46.32
2023-03-16T11:34:43.511Z,46.40
2023-03-16T11:35:56.336Z,46.30
2023-03-16T11:36:43.508Z,46.28
2023-03-16T11:37:43.518Z,43.77
2023-03-16T11:38:43.469Z,44.76
2023-03-16T11:39:43.500Z,44.79
2023-03-16T11:40:43.462Z,43.77
2023-03-16T11:41:43.434Z,42.76
2023-03-16T11:42:43.440Z,44.67
2023-03-16T11:43:43.407Z,42.58
2023-03-16T11:44:43.542Z,43.26
2023-03-16T11:45:43.502Z,42.72
2023-03-16T11:46:43.396Z,42.07
2023-03-16T11:47:43.456Z,43.06
2023-03-16T11:48:43.430Z,41.41
2023-03-16T11:49:43.507Z,38.34
2023-03-16T11:50:43.559Z,38.44
2023-03-16T11:51:43.467Z,38.07
2023-03-16T11:52:43.395Z,39.84
2023-03-16T11:53:43.408Z,41.00
2023-03-16T11:54:43.293Z,40.18
2023-03-16T11:55:43.271Z,40.66
2023-03-16T11:56:43.335Z,38.64
2023-03-16T11:57:43.268Z,39.84
2023-03-16T11:58:43.248Z,38.79
2023-03-16T11:59:48.955Z,39.56
2023-03-16T12:00:43.304Z,40.14
2023-03-16T12:01:57.899Z,38.70
2023-03-16T12:02:43.371Z,37.54
2023-03-16T12:03:43.650Z,38.79
2023-03-16T12:04:43.201Z,36.76
2023-03-16T12:05:44.942Z,37.05
2023-03-16T12:06:43.275Z,36.21
2023-03-16T12:07:43.145Z,36.75
2023-03-16T12:08:43.268Z,39.14
2023-03-16T12:09:43.181Z,37.24
2023-03-16T12:10:43.095Z,38.68
2023-03-16T12:11:43.418Z,39.32
2023-03-16T12:12:43.084Z,37.43
2023-03-16T12:13:43.072Z,39.78
2023-03-16T12:14:43.057Z,39.58
2023-03-16T12:15:43.217Z,40.44
2023-03-16T12:16:49.580Z,41.39
2023-03-16T12:17:43.143Z,42.64
2023-03-16T12:18:43.204Z,42.78
2023-03-16T12:19:43.086Z,45.43
2023-03-16T12:20:43.205Z,44.84
2023-03-16T12:21:43.298Z,45.35
2023-03-16T12:22:42.992Z,45.51
2023-03-16T12:23:42.984Z,45.86
2023-03-16T12:24:42.975Z,46.31
2023-03-16T12:25:43.281Z,49.22
2023-03-16T12:26:42.980Z,49.53
2023-03-16T12:27:42.996Z,48.74
2023-03-16T12:28:43.037Z,49.88
2023-03-16T12:29:43.096Z,51.72
2023-03-16T12:30:43.027Z,51.81
2023-03-16T12:31:43.288Z,50.92
2023-03-16T12:32:43.106Z,52.15
2023-03-16T12:33:42.933Z,51.84
2023-03-16T12:34:43.019Z,52.66
2023-03-16T12:35:43.415Z,51.86
2023-03-16T12:36:42.957Z,53.31
2023-03-16T12:37:43.018Z,53.11
2023-03-16T12:38:42.906Z,53.96
2023-03-16T12:39:43.173Z,53.42
2023-03-16T12:40:42.907Z,54.64
2023-03-16T12:41:42.841Z,53.44
2023-03-16T12:42:42.842Z,53.75
2023-03-16T12:43:42.834Z,54.26
2023-03-16T12:44:42.920Z,53.22
2023-03-16T12:45:42.856Z,53.83
2023-03-16T12:46:42.757Z,53.50
2023-03-16T12:47:42.735Z,52.25
2023-03-16T12:48:42.732Z,54.08
2023-03-16T12:49:42.742Z,52.66
2023-03-16T12:50:42.743Z,51.72
2023-03-16T12:51:42.745Z,51.92
2023-03-16T12:52:42.746Z,51.00
2023-03-16T12:53:42.682Z,52.94
2023-03-16T12:54:42.879Z,51.39
2023-03-16T12:55:42.677Z,52.91
2023-03-16T12:56:42.734Z,52.43
2023-03-16T12:57:42.831Z,51.81
2023-03-16T12:58:42.641Z,52.04
2023-03-16T12:59:42.894Z,52.35
2023-03-16T13:00:43.088Z,52.07
2023-03-16T13:01:42.604Z,52.98
2023-03-16T13:02:42.718Z,54.11
2023-03-16T13:03:42.989Z,53.29
2023-03-16T13:04:43.021Z,53.16
2023-03-16T13:05:42.612Z,52.96
2023-03-16T13:06:42.712Z,53.78
2023-03-16T13:07:42.683Z,52.25
2023-03-16T13:08:42.563Z,52.63
2023-03-16T13:09:42.556Z,52.50
2023-03-16T13:10:42.888Z,51.89
2023-03-16T13:11:42.491Z,52.81
2023-03-16T13:12:42.477Z,51.97
2023-03-16T13:13:42.487Z,51.56
2023-03-16T13:14:42.507Z,51.14
2023-03-16T13:15:42.492Z,50.65
2023-03-16T13:16:42.618Z,51.72
2023-03-16T13:17:42.799Z,52.53
2023-03-16T13:18:42.444Z,50.48
2023-03-16T13:19:42.450Z,49.23
2023-03-16T13:20:42.558Z,48.71
2023-03-16T13:21:42.795Z,47.95
2023-03-16T13:22:42.455Z,47.78
2023-03-16T13:23:42.386Z,45.61
2023-03-16T13:24:42.368Z,45.81
2023-03-16T13:25:42.553Z,44.42
2023-03-16T13:26:42.373Z,47.23
2023-03-16T13:27:42.609Z,46.22
2023-03-16T13:28:42.617Z,45.61
2023-03-16T13:29:42.556Z,45.77
2023-03-16T13:30:42.425Z,45.57
2023-03-16T13:31:42.523Z,45.22
2023-03-16T13:32:42.615Z,42.41
2023-03-16T13:33:42.337Z,40.78
2023-03-16T13:34:42.452Z,42.25
2023-03-16T13:35:42.289Z,43.65
2023-03-16T13:36:42.444Z,44.90
2023-03-16T13:37:42.324Z,44.78
2023-03-16T13:38:42.330Z,43.18
2023-03-16T13:39:42.405Z,42.44
2023-03-16T13:40:42.232Z,41.11
2023-03-16T13:41:43.448Z,41.06
2023-03-16T13:42:42.308Z,41.17
2023-03-16T13:43:42.206Z,42.90
2023-03-16T13:44:42.292Z,40.75
2023-03-16T13:45:42.460Z,39.62
2023-03-16T13:46:42.132Z,39.40
2023-03-16T13:47:42.170Z,38.79
2023-03-16T13:48:42.231Z,39.38
2023-03-16T13:49:42.134Z,38.54
2023-03-16T13:50:42.418Z,39.84
2023-03-16T13:51:42.217Z,39.62
2023-03-16T13:52:42.106Z,39.86
2023-03-16T13:53:42.099Z,40.00
2023-03-16T13:54:42.275Z,42.18
2023-03-16T13:55:42.097Z,42.92
2023-03-16T13:56:42.361Z,43.24
2023-03-16T13:57:42.246Z,45.39
2023-03-16T13:58:42.198Z,44.48
2023-03-16T13:59:42.027Z,44.46
2023-03-16T14:00:42.036Z,43.83
2023-03-16T14:01:42.085Z,43.30
2023-03-16T14:02:42.068Z,43.93
2023-03-16T14:03:42.062Z,45.57
2023-03-16T14:04:43.459Z,44.78
2023-03-16T14:05:41.952Z,45.91
2023-03-16T14:06:41.947Z,46.34
2023-03-16T14:07:41.959Z,46.26
2023-03-16T14:08:41.985Z,46.26
2023-03-16T14:09:41.941Z,46.18
2023-03-16T14:10:42.011Z,47.22
2023-03-16T14:11:41.884Z,47.80
2023-03-16T14:12:42.331Z,47.07
2023-03-16T14:13:41.885Z,47.15
2023-03-16T14:14:41.977Z,46.01
2023-03-16T14:15:41.959Z,46.62
2023-03-16T14:16:41.972Z,46.91
2023-03-16T14:17:41.865Z,45.89
2023-03-16T14:18:41.946Z,46.52
2023-03-16T14:19:41.837Z,46.14
2023-03-16T14:20:41.911Z,47.07
2023-03-16T14:21:41.920Z,48.99
2023-03-16T14:22:41.849Z,48.28
2023-03-16T14:23:41.836Z,48.90
2023-03-16T14:24:41.745Z,48.82
2023-03-16T14:25:41.785Z,48.51
2023-03-16T14:26:41.810Z,48.28
2023-03-16T14:27:41.966Z,47.67
2023-03-16T14:28:41.741Z,47.90
2023-03-16T14:29:41.752Z,49.44
2023-03-16T14:30:41.727Z,49.29
2023-03-16T14:31:41.861Z,51.93
2023-03-16T14:32:41.709Z,51.34
2023-03-16T14:33:41.764Z,50.02
2023-03-16T14:34:41.803Z,51.77
2023-03-16T14:35:41.843Z,50.65
2023-03-16T14:36:41.856Z,52.18
2023-03-16T14:37:41.639Z,51.16
2023-03-16T14:38:41.634Z,49.84
2023-03-16T14:39:41.881Z,52.08
2023-03-16T14:40:41.608Z,51.59
2023-03-16T14:41:41.613Z,52.23
2023-03-16T14:42:41.613Z,52.73
2023-03-16T14:43:41.610Z,51.42
2023-03-16T14:44:42.026Z,51.34
2023-03-16T14:45:41.601Z,51.54
2023-03-16T14:46:41.810Z,52.28
2023-03-16T14:47:41.609Z,53.70
2023-03-16T14:48:41.603Z,52.28
2023-03-16T14:49:43.382Z,52.86
2023-03-16T14:50:41.616Z,52.56
2023-03-16T14:51:41.564Z,52.05
2023-03-16T14:52:41.773Z,52.45
2023-03-16T14:53:41.959Z,52.56
2023-03-16T14:54:42.065Z,52.66
2023-03-16T14:55:41.499Z,50.85
2023-03-16T14:56:41.477Z,52.00
2023-03-16T14:57:41.472Z,53.29
2023-03-16T14:58:41.439Z,52.98
2023-03-16T14:59:41.629Z,52.48
2023-03-16T15:00:52.318Z,53.09
2023-03-16T15:01:41.580Z,52.68
2023-03-16T15:02:41.504Z,54.03
2023-03-16T15:03:41.749Z,52.81
2023-03-16T15:04:41.615Z,53.52
2023-03-16T15:05:41.428Z,54.64
2023-03-16T15:06:41.622Z,53.42
2023-03-16T15:07:41.341Z,52.50
2023-03-16T15:08:41.328Z,53.52
2023-03-16T15:09:41.992Z,54.05
2023-03-16T15:10:41.322Z,54.33
2023-03-16T15:11:41.319Z,52.94
2023-03-16T15:12:41.282Z,54.05
2023-03-16T15:13:41.317Z,54.36
2023-03-16T15:14:41.265Z,53.75
2023-03-16T15:15:41.873Z,55.48
2023-03-16T15:16:41.242Z,54.26
2023-03-16T15:17:41.231Z,52.94
2023-03-16T15:18:41.250Z,54.05
2023-03-16T15:19:41.374Z,55.79
2023-03-16T15:20:41.209Z,54.05
2023-03-16T15:21:41.213Z,52.94
2023-03-16T15:22:41.203Z,54.66
2023-03-16T15:23:41.202Z,55.18
2023-03-16T15:24:41.640Z,56.29
2023-03-16T15:25:41.304Z,54.87
2023-03-16T15:26:41.161Z,55.79
2023-03-16T15:27:41.391Z,54.87
2023-03-16T15:28:41.572Z,53.44
2023-03-16T15:29:41.188Z,53.96
2023-03-16T15:30:41.191Z,54.16
2023-03-16T15:31:41.166Z,53.96
2023-03-16T15:32:41.135Z,53.85
2023-03-16T15:33:41.129Z,55.38
2023-03-16T15:34:41.332Z,55.38
2023-03-16T15:35:41.252Z,55.28
2023-03-16T15:36:41.493Z,53.47
2023-03-16T15:37:41.053Z,55.00
2023-03-16T15:38:41.050Z,54.49
2023-03-16T15:39:41.051Z,54.79
2023-03-16T15:40:41.174Z,55.41
2023-03-16T15:41:47.476Z,52.04
2023-03-16T15:42:41.169Z,53.06
2023-03-16T15:43:41.169Z,55.00
2023-03-16T15:44:41.257Z,52.86
2023-03-16T15:45:41.064Z,52.76
2023-03-16T15:46:41.037Z,52.37
2023-03-16T15:47:41.041Z,52.07
2023-03-16T15:48:41.007Z,52.48
2023-03-16T15:49:47.781Z,53.39
2023-03-16T15:50:40.965Z,53.90
2023-03-16T15:51:41.034Z,54.00
2023-03-16T15:52:40.990Z,54.33
2023-03-16T15:53:41.056Z,54.54
2023-03-16T15:54:41.171Z,55.05
2023-03-16T15:55:41.041Z,54.44
2023-03-16T15:56:53.254Z,55.46
2023-03-16T15:57:41.024Z,55.26
2023-03-16T15:58:41.000Z,54.74
2023-03-16T15:59:40.943Z,53.62
2023-03-16T16:00:40.953Z,53.62
2023-03-16T16:01:40.896Z,53.92
2023-03-16T16:02:41.282Z,54.13
2023-03-16T16:03:40.905Z,55.76
2023-03-16T16:04:40.907Z,54.94
2023-03-16T16:05:40.737Z,55.05
2023-03-16T16:06:40.807Z,56.17
2023-03-16T16:07:40.730Z,54.26
2023-03-16T16:08:40.915Z,55.07
2023-03-16T16:09:40.877Z,53.75
2023-03-16T16:10:40.974Z,53.75
2023-03-16T16:11:41.285Z,54.26
2023-03-16T16:12:40.881Z,55.07
2023-03-16T16:13:44.653Z,55.79
2023-03-16T16:14:40.870Z,54.87
2023-03-16T16:15:40.719Z,53.85
2023-03-16T16:16:40.745Z,54.57
2023-03-16T16:17:53.883Z,53.55
2023-03-16T16:18:40.882Z,54.97
2023-03-16T16:19:41.056Z,55.07
2023-03-16T16:20:40.748Z,55.00
2023-03-16T16:21:40.615Z,55.41
2023-03-16T16:22:40.584Z,56.53
2023-03-16T16:23:40.562Z,54.79
2023-03-16T16:24:40.812Z,55.30
2023-03-16T16:25:40.553Z,56.63
2023-03-16T16:26:50.549Z,55.61
2023-03-16T16:27:40.550Z,55.41
2023-03-16T16:28:40.514Z,55.00
2023-03-16T16:29:40.766Z,55.33
2023-03-16T16:30:40.708Z,55.13
2023-03-16T16:31:40.904Z,54.61
2023-03-16T16:32:40.879Z,55.43
2023-03-16T16:33:40.529Z,55.43
2023-03-16T16:34:40.676Z,54.72
2023-03-16T16:35:40.574Z,56.15
2023-03-16T16:36:40.452Z,57.20
2023-03-16T16:37:40.489Z,55.97
2023-03-16T16:38:40.441Z,57.40
2023-03-16T16:39:40.678Z,56.58
2023-03-16T16:40:40.552Z,55.97
2023-03-16T16:41:40.522Z,55.87
2023-03-16T16:42:40.500Z,56.51
2023-03-16T16:43:40.386Z,56.40
2023-03-16T16:44:40.593Z,55.99
2023-03-16T16:45:40.568Z,56.20
2023-03-16T16:46:40.384Z,57.22
2023-03-16T16:47:40.344Z,58.34
2023-03-16T16:48:40.352Z,56.33
2023-03-16T16:49:40.332Z,55.99
2023-03-16T16:50:40.333Z,56.92
2023-03-16T16:51:40.530Z,57.04
2023-03-16T16:52:40.355Z,56.23
2023-03-16T16:53:40.266Z,55.71
2023-03-16T16:54:40.253Z,56.02
2023-03-16T16:55:42.322Z,56.53
2023-03-16T16:56:40.237Z,56.23
2023-03-16T16:57:40.212Z,57.04
2023-03-16T16:58:40.216Z,57.25
2023-03-16T16:59:40.288Z,57.28
2023-03-16T17:00:40.431Z,58.81
2023-03-16T17:01:40.367Z,59.12
2023-03-16T17:02:42.096Z,58.50
2023-03-16T17:03:40.145Z,57.89
2023-03-16T17:04:40.592Z,59.45
2023-03-16T17:05:40.191Z,59.25
2023-03-16T17:06:40.219Z,58.63
2023-03-16T17:07:40.247Z,58.63
2023-03-16T17:08:40.190Z,58.53
2023-03-16T17:09:40.136Z,59.78
2023-03-16T17:10:40.683Z,58.97
2023-03-16T17:11:40.723Z,59.58
2023-03-16T17:12:40.301Z,60.50
2023-03-16T17:13:40.117Z,58.76
2023-03-16T17:14:40.040Z,58.63
2023-03-16T17:15:40.085Z,58.22
2023-03-16T17:16:40.272Z,58.33
2023-03-16T17:17:40.052Z,58.53
2023-03-16T17:18:40.295Z,58.76
2023-03-16T17:19:40.072Z,58.45
2023-03-16T17:20:40.154Z,58.97
2023-03-16T17:21:40.156Z,59.27
2023-03-16T17:22:40.152Z,60.30
2023-03-16T17:23:40.213Z,60.84
2023-03-16T17:24:40.274Z,59.81
2023-03-16T17:25:40.049Z,60.12
2023-03-16T17:26:40.287Z,59.92
2023-03-16T17:27:40.113Z,60.02
2023-03-16T17:28:39.949Z,60.63
2023-03-16T17:29:40.125Z,60.53
2023-03-16T17:30:40.011Z,61.66
2023-03-16T17:31:40.095Z,60.63
2023-03-16T17:32:40.116Z,60.74
2023-03-16T17:33:40.032Z,61.25
2023-03-16T17:34:39.892Z,60.97
2023-03-16T17:35:40.116Z,61.48
2023-03-16T17:36:39.929Z,61.27
2023-03-16T17:37:40.059Z,60.76
2023-03-16T17:38:40.083Z,61.15
2023-03-16T17:39:40.030Z,60.94
2023-03-16T17:40:39.893Z,60.53
2023-03-16T17:41:39.964Z,60.84
2023-03-16T17:42:39.881Z,60.84
2023-03-16T17:43:39.785Z,60.94
2023-03-16T17:44:39.751Z,61.04
2023-03-16T17:45:39.927Z,61.25
2023-03-16T17:46:39.779Z,60.97
2023-03-16T17:47:39.800Z,60.66
2023-03-16T17:48:39.767Z,61.27
2023-03-16T17:49:39.730Z,61.99
2023-03-16T17:50:39.832Z,62.40
2023-03-16T17:51:40.501Z,61.58
2023-03-16T17:52:39.669Z,61.58
2023-03-16T17:53:39.817Z,61.79
2023-03-16T17:54:39.674Z,63.22